sensor_id;sensor_type;location;lat;lon;timestamp;temperature;humidity
8820;DHT22;4446;50.876;4.736;2023-05-10T00:00:24;12.30;99.90
8820;DHT22;4446;50.876;4.736;2023-05-10T00:02:51;12.30;99.90
8820;DHT22;4446;50.876;4.736;2023-05-10T00:05:18;12.30;99.90
8820;DHT22;4446;50.876;4.736;2023-05-10T00:07:45;12.30;99.90
8820;DHT22;4446;50.876;4.736;2023-05-10T00:10:13;12.30;99.90
8820;DHT22;4446;50.876;4.736;2023-05-10T00:12:40;12.20;99.90
8820;DHT22;4446;50.876;4.736;2023-05-10T00:15:08;12.20;99.90
8820;DHT22;4446;50.876;4.736;2023-05-10T00:17:35;12.20;99.90
8820;DHT22;4446;50.876;4.736;2023-05-10T00:20:03;12.20;99.90
8820;DHT22;4446;50.876;4.736;2023-05-10T00:22:30;12.20;99.90
8820;DHT22;4446;50.876;4.736;2023-05-10T00:24:58;12.20;99.90
8820;DHT22;4446;50.876;4.736;2023-05-10T00:27:26;12.30;99.90
8820;DHT22;4446;50.876;4.736;2023-05-10T00:29:53;12.30;99.90
8820;DHT22;4446;50.876;4.736;2023-05-10T00:32:20;12.30;99.90
8820;DHT22;4446;50.876;4.736;2023-05-10T00:34:47;12.30;99.90
8820;DHT22;4446;50.876;4.736;2023-05-10T00:37:14;12.30;99.90
8820;DHT22;4446;50.876;4.736;2023-05-10T00:39:41;12.30;99.90
8820;DHT22;4446;50.876;4.736;2023-05-10T00:42:08;12.30;99.90
8820;DHT22;4446;50.876;4.736;2023-05-10T00:44:37;12.40;99.90
8820;DHT22;4446;50.876;4.736;2023-05-10T00:47:04;12.40;99.90
8820;DHT22;4446;50.876;4.736;2023-05-10T00:49:31;12.40;99.90
8820;DHT22;4446;50.876;4.736;2023-05-10T00:51:58;12.40;99.90
8820;DHT22;4446;50.876;4.736;2023-05-10T00:54:25;12.40;99.90
8820;DHT22;4446;50.876;4.736;2023-05-10T00:56:52;12.40;99.90
8820;DHT22;4446;50.876;4.736;2023-05-10T00:59:19;12.40;99.90
8820;DHT22;4446;50.876;4.736;2023-05-10T01:01:48;12.40;99.90
8820;DHT22;4446;50.876;4.736;2023-05-10T01:04:15;12.40;99.90
8820;DHT22;4446;50.876;4.736;2023-05-10T01:06:42;12.40;99.90
8820;DHT22;4446;50.876;4.736;2023-05-10T01:09:09;12.30;99.90
8820;DHT22;4446;50.876;4.736;2023-05-10T01:11:38;12.30;99.90
8820;DHT22;4446;50.876;4.736;2023-05-10T01:14:06;12.30;99.90
8820;DHT22;4446;50.876;4.736;2023-05-10T01:16:37;12.30;99.90
8820;DHT22;4446;50.876;4.736;2023-05-10T01:19:10;12.40;99.90
8820;DHT22;4446;50.876;4.736;2023-05-10T01:21:44;12.30;99.90
8820;DHT22;4446;50.876;4.736;2023-05-10T01:24:57;12.40;99.90
8820;DHT22;4446;50.876;4.736;2023-05-10T01:27:55;12.30;99.90
8820;DHT22;4446;50.876;4.736;2023-05-10T01:30:41;12.30;99.90
8820;DHT22;4446;50.876;4.736;2023-05-10T01:33:16;12.30;99.90
8820;DHT22;4446;50.876;4.736;2023-05-10T01:35:50;12.30;99.90
8820;DHT22;4446;50.876;4.736;2023-05-10T01:38:22;12.30;99.90
8820;DHT22;4446;50.876;4.736;2023-05-10T01:40:59;12.30;99.90
8820;DHT22;4446;50.876;4.736;2023-05-10T01:43:31;12.30;99.90
8820;DHT22;4446;50.876;4.736;2023-05-10T01:46:02;12.30;99.90
8820;DHT22;4446;50.876;4.736;2023-05-10T01:48:38;12.30;99.90
8820;DHT22;4446;50.876;4.736;2023-05-10T01:51:09;12.30;99.90
8820;DHT22;4446;50.876;4.736;2023-05-10T01:53:37;12.30;99.90
8820;DHT22;4446;50.876;4.736;2023-05-10T01:56:07;12.30;99.90
8820;DHT22;4446;50.876;4.736;2023-05-10T01:58:36;12.30;99.90
8820;DHT22;4446;50.876;4.736;2023-05-10T02:01:08;12.30;99.90
8820;DHT22;4446;50.876;4.736;2023-05-10T02:03:38;12.30;99.90
8820;DHT22;4446;50.876;4.736;2023-05-10T02:06:07;12.30;99.90
8820;DHT22;4446;50.876;4.736;2023-05-10T02:08:36;12.30;99.90
8820;DHT22;4446;50.876;4.736;2023-05-10T02:11:05;12.30;99.90
8820;DHT22;4446;50.876;4.736;2023-05-10T02:13:32;12.30;99.90
8820;DHT22;4446;50.876;4.736;2023-05-10T02:16:01;12.30;99.90
8820;DHT22;4446;50.876;4.736;2023-05-10T02:18:31;12.20;99.90
8820;DHT22;4446;50.876;4.736;2023-05-10T02:21:01;12.20;99.90
8820;DHT22;4446;50.876;4.736;2023-05-10T02:23:29;12.30;99.90
8820;DHT22;4446;50.876;4.736;2023-05-10T02:25:58;12.40;99.90
8820;DHT22;4446;50.876;4.736;2023-05-10T02:28:27;12.30;99.90
8820;DHT22;4446;50.876;4.736;2023-05-10T02:30:55;12.40;99.90
8820;DHT22;4446;50.876;4.736;2023-05-10T02:33:22;12.40;99.90
8820;DHT22;4446;50.876;4.736;2023-05-10T02:35:51;12.40;99.90
8820;DHT22;4446;50.876;4.736;2023-05-10T02:38:20;12.30;99.90
8820;DHT22;4446;50.876;4.736;2023-05-10T02:40:48;12.30;99.90
8820;DHT22;4446;50.876;4.736;2023-05-10T02:43:17;12.30;99.90
8820;DHT22;4446;50.876;4.736;2023-05-10T02:45:47;12.30;99.90
8820;DHT22;4446;50.876;4.736;2023-05-10T02:48:15;12.40;99.90
8820;DHT22;4446;50.876;4.736;2023-05-10T02:50:44;12.40;99.90
8820;DHT22;4446;50.876;4.736;2023-05-10T02:53:15;12.30;99.90
8820;DHT22;4446;50.876;4.736;2023-05-10T02:55:50;12.40;99.90
8820;DHT22;4446;50.876;4.736;2023-05-10T02:58:18;12.40;99.90
8820;DHT22;4446;50.876;4.736;2023-05-10T03:00:46;12.40;99.90
8820;DHT22;4446;50.876;4.736;2023-05-10T03:03:13;12.40;99.90
8820;DHT22;4446;50.876;4.736;2023-05-10T03:05:40;12.40;99.90
8820;DHT22;4446;50.876;4.736;2023-05-10T03:08:07;12.40;99.90
8820;DHT22;4446;50.876;4.736;2023-05-10T03:10:41;12.40;99.90
8820;DHT22;4446;50.876;4.736;2023-05-10T03:13:16;12.40;99.90
8820;DHT22;4446;50.876;4.736;2023-05-10T03:15:53;12.40;99.90
8820;DHT22;4446;50.876;4.736;2023-05-10T03:18:29;12.40;99.90
8820;DHT22;4446;50.876;4.736;2023-05-10T03:20:59;12.40;99.90
8820;DHT22;4446;50.876;4.736;2023-05-10T03:23:40;12.40;99.90
8820;DHT22;4446;50.876;4.736;2023-05-10T03:26:08;12.40;99.90
8820;DHT22;4446;50.876;4.736;2023-05-10T03:28:36;12.40;99.90
8820;DHT22;4446;50.876;4.736;2023-05-10T03:31:05;12.40;99.90
8820;DHT22;4446;50.876;4.736;2023-05-10T03:33:33;12.40;99.90
8820;DHT22;4446;50.876;4.736;2023-05-10T03:36:00;12.40;99.90
8820;DHT22;4446;50.876;4.736;2023-05-10T03:38:27;12.40;99.90
8820;DHT22;4446;50.876;4.736;2023-05-10T03:40:54;12.30;99.90
8820;DHT22;4446;50.876;4.736;2023-05-10T03:43:21;12.30;99.90
8820;DHT22;4446;50.876;4.736;2023-05-10T03:45:49;12.30;99.90
8820;DHT22;4446;50.876;4.736;2023-05-10T03:48:16;12.20;99.90
8820;DHT22;4446;50.876;4.736;2023-05-10T03:50:43;12.20;99.90
8820;DHT22;4446;50.876;4.736;2023-05-10T03:53:10;12.20;99.90
8820;DHT22;4446;50.876;4.736;2023-05-10T03:55:37;12.20;99.90
8820;DHT22;4446;50.876;4.736;2023-05-10T03:58:04;12.20;99.90
8820;DHT22;4446;50.876;4.736;2023-05-10T04:00:31;12.20;99.90
8820;DHT22;4446;50.876;4.736;2023-05-10T04:03:00;12.20;99.90
8820;DHT22;4446;50.876;4.736;2023-05-10T04:05:27;12.10;99.90
8820;DHT22;4446;50.876;4.736;2023-05-10T04:07:54;12.10;99.90
8820;DHT22;4446;50.876;4.736;2023-05-10T04:10:21;12.20;99.90
8820;DHT22;4446;50.876;4.736;2023-05-10T04:12:48;12.10;99.90
8820;DHT22;4446;50.876;4.736;2023-05-10T04:15:15;12.10;99.90
8820;DHT22;4446;50.876;4.736;2023-05-10T04:17:42;12.20;99.90
8820;DHT22;4446;50.876;4.736;2023-05-10T04:20:11;12.20;99.90
8820;DHT22;4446;50.876;4.736;2023-05-10T04:22:38;12.20;99.90
8820;DHT22;4446;50.876;4.736;2023-05-10T04:25:07;12.10;99.90
8820;DHT22;4446;50.876;4.736;2023-05-10T04:27:34;12.10;99.90
8820;DHT22;4446;50.876;4.736;2023-05-10T04:30:01;12.10;99.90
8820;DHT22;4446;50.876;4.736;2023-05-10T04:32:28;12.00;99.90
8820;DHT22;4446;50.876;4.736;2023-05-10T04:34:55;12.10;99.90
8820;DHT22;4446;50.876;4.736;2023-05-10T04:37:24;12.00;99.90
8820;DHT22;4446;50.876;4.736;2023-05-10T04:39:51;12.00;99.90
8820;DHT22;4446;50.876;4.736;2023-05-10T04:42:18;12.00;99.90
8820;DHT22;4446;50.876;4.736;2023-05-10T04:44:45;12.00;99.90
8820;DHT22;4446;50.876;4.736;2023-05-10T04:47:12;12.00;99.90
8820;DHT22;4446;50.876;4.736;2023-05-10T04:49:39;12.00;99.90
8820;DHT22;4446;50.876;4.736;2023-05-10T04:52:06;12.00;99.90
8820;DHT22;4446;50.876;4.736;2023-05-10T04:54:34;12.00;99.90
8820;DHT22;4446;50.876;4.736;2023-05-10T04:57:01;12.00;99.90
8820;DHT22;4446;50.876;4.736;2023-05-10T04:59:28;12.10;99.90
8820;DHT22;4446;50.876;4.736;2023-05-10T05:01:55;12.10;99.90
8820;DHT22;4446;50.876;4.736;2023-05-10T05:04:22;12.10;99.90
8820;DHT22;4446;50.876;4.736;2023-05-10T05:06:49;12.10;99.90
8820;DHT22;4446;50.876;4.736;2023-05-10T05:09:17;12.20;99.90
8820;DHT22;4446;50.876;4.736;2023-05-10T05:11:45;12.10;99.90
8820;DHT22;4446;50.876;4.736;2023-05-10T05:14:12;12.10;99.90
8820;DHT22;4446;50.876;4.736;2023-05-10T05:16:39;12.20;99.90
8820;DHT22;4446;50.876;4.736;2023-05-10T05:19:06;12.20;99.90
8820;DHT22;4446;50.876;4.736;2023-05-10T05:21:33;12.10;99.90
8820;DHT22;4446;50.876;4.736;2023-05-10T05:24:01;12.20;99.90
8820;DHT22;4446;50.876;4.736;2023-05-10T05:26:28;12.10;99.90
8820;DHT22;4446;50.876;4.736;2023-05-10T05:28:56;12.10;99.90
8820;DHT22;4446;50.876;4.736;2023-05-10T05:31:23;12.10;99.90
8820;DHT22;4446;50.876;4.736;2023-05-10T05:33:50;12.20;99.90
8820;DHT22;4446;50.876;4.736;2023-05-10T05:36:17;12.20;99.90
8820;DHT22;4446;50.876;4.736;2023-05-10T05:38:44;12.20;99.90
8820;DHT22;4446;50.876;4.736;2023-05-10T05:41:11;12.20;99.90
8820;DHT22;4446;50.876;4.736;2023-05-10T05:43:38;12.20;99.90
8820;DHT22;4446;50.876;4.736;2023-05-10T05:46:06;12.20;99.90
8820;DHT22;4446;50.876;4.736;2023-05-10T05:48:34;12.20;99.90
8820;DHT22;4446;50.876;4.736;2023-05-10T05:51:01;12.20;99.90
8820;DHT22;4446;50.876;4.736;2023-05-10T05:53:28;12.20;99.90
8820;DHT22;4446;50.876;4.736;2023-05-10T05:55:56;12.20;99.90
8820;DHT22;4446;50.876;4.736;2023-05-10T05:58:24;12.30;99.90
8820;DHT22;4446;50.876;4.736;2023-05-10T06:00:51;12.20;99.90
8820;DHT22;4446;50.876;4.736;2023-05-10T06:03:20;12.20;99.90
8820;DHT22;4446;50.876;4.736;2023-05-10T06:05:47;12.20;99.90
8820;DHT22;4446;50.876;4.736;2023-05-10T06:08:14;12.20;99.90
8820;DHT22;4446;50.876;4.736;2023-05-10T06:10:41;12.30;99.90
8820;DHT22;4446;50.876;4.736;2023-05-10T06:13:08;12.30;99.90
8820;DHT22;4446;50.876;4.736;2023-05-10T06:15:35;12.40;99.90
8820;DHT22;4446;50.876;4.736;2023-05-10T06:18:02;12.40;99.90
8820;DHT22;4446;50.876;4.736;2023-05-10T06:20:31;12.50;99.90
8820;DHT22;4446;50.876;4.736;2023-05-10T06:22:58;12.50;99.90
8820;DHT22;4446;50.876;4.736;2023-05-10T06:25:25;12.50;99.90
8820;DHT22;4446;50.876;4.736;2023-05-10T06:27:52;12.60;99.90
8820;DHT22;4446;50.876;4.736;2023-05-10T06:30:23;12.70;99.90
8820;DHT22;4446;50.876;4.736;2023-05-10T06:32:53;12.70;99.90
8820;DHT22;4446;50.876;4.736;2023-05-10T06:35:20;12.70;99.90
8820;DHT22;4446;50.876;4.736;2023-05-10T06:37:49;12.80;99.90
8820;DHT22;4446;50.876;4.736;2023-05-10T06:40:17;12.80;99.90
8820;DHT22;4446;50.876;4.736;2023-05-10T06:42:44;12.90;99.90
8820;DHT22;4446;50.876;4.736;2023-05-10T06:45:12;13.00;99.90
8820;DHT22;4446;50.876;4.736;2023-05-10T06:47:40;13.00;99.90
8820;DHT22;4446;50.876;4.736;2023-05-10T06:50:07;12.90;99.90
8820;DHT22;4446;50.876;4.736;2023-05-10T06:52:34;13.00;99.90
8820;DHT22;4446;50.876;4.736;2023-05-10T06:55:04;13.10;99.90
8820;DHT22;4446;50.876;4.736;2023-05-10T06:57:31;13.00;99.90
8820;DHT22;4446;50.876;4.736;2023-05-10T06:59:58;13.10;99.90
8820;DHT22;4446;50.876;4.736;2023-05-10T07:02:25;13.20;99.90
8820;DHT22;4446;50.876;4.736;2023-05-10T07:04:52;13.20;99.90
8820;DHT22;4446;50.876;4.736;2023-05-10T07:07:19;13.20;99.90
8820;DHT22;4446;50.876;4.736;2023-05-10T07:09:46;13.20;99.90
8820;DHT22;4446;50.876;4.736;2023-05-10T07:12:16;13.30;99.90
8820;DHT22;4446;50.876;4.736;2023-05-10T07:14:44;13.30;99.90
8820;DHT22;4446;50.876;4.736;2023-05-10T07:17:11;13.40;99.90
8820;DHT22;4446;50.876;4.736;2023-05-10T07:19:38;13.20;99.90
8820;DHT22;4446;50.876;4.736;2023-05-10T07:22:05;13.30;99.90
8820;DHT22;4446;50.876;4.736;2023-05-10T07:24:32;13.30;99.90
8820;DHT22;4446;50.876;4.736;2023-05-10T07:26:59;13.40;99.90
8820;DHT22;4446;50.876;4.736;2023-05-10T07:29:27;13.60;99.90
8820;DHT22;4446;50.876;4.736;2023-05-10T07:31:55;13.60;99.90
8820;DHT22;4446;50.876;4.736;2023-05-10T07:34:22;13.60;99.90
8820;DHT22;4446;50.876;4.736;2023-05-10T07:36:49;13.60;99.90
8820;DHT22;4446;50.876;4.736;2023-05-10T07:39:16;13.50;99.90
8820;DHT22;4446;50.876;4.736;2023-05-10T07:41:43;13.40;99.90
8820;DHT22;4446;50.876;4.736;2023-05-10T07:44:10;13.30;99.90
8820;DHT22;4446;50.876;4.736;2023-05-10T07:46:38;13.20;99.90
8820;DHT22;4446;50.876;4.736;2023-05-10T07:49:05;13.30;99.90
8820;DHT22;4446;50.876;4.736;2023-05-10T07:51:32;13.20;99.90
8820;DHT22;4446;50.876;4.736;2023-05-10T07:53:59;13.10;99.90
8820;DHT22;4446;50.876;4.736;2023-05-10T07:56:29;13.10;99.90
8820;DHT22;4446;50.876;4.736;2023-05-10T07:58:58;13.00;99.90
8820;DHT22;4446;50.876;4.736;2023-05-10T08:01:25;12.90;99.90
8820;DHT22;4446;50.876;4.736;2023-05-10T08:03:54;12.90;99.90
8820;DHT22;4446;50.876;4.736;2023-05-10T08:06:21;12.90;99.90
8820;DHT22;4446;50.876;4.736;2023-05-10T08:08:49;12.90;99.90
8820;DHT22;4446;50.876;4.736;2023-05-10T08:11:16;12.80;99.90
8820;DHT22;4446;50.876;4.736;2023-05-10T08:13:43;12.70;99.90
8820;DHT22;4446;50.876;4.736;2023-05-10T08:16:10;12.80;99.90
8820;DHT22;4446;50.876;4.736;2023-05-10T08:18:37;12.70;99.90
8820;DHT22;4446;50.876;4.736;2023-05-10T08:21:06;12.70;99.90
8820;DHT22;4446;50.876;4.736;2023-05-10T08:23:33;12.80;99.90
8820;DHT22;4446;50.876;4.736;2023-05-10T08:26:00;12.70;99.90
8820;DHT22;4446;50.876;4.736;2023-05-10T08:28:27;12.70;99.90
8820;DHT22;4446;50.876;4.736;2023-05-10T08:30:55;12.70;99.90
8820;DHT22;4446;50.876;4.736;2023-05-10T08:33:22;12.80;99.90
8820;DHT22;4446;50.876;4.736;2023-05-10T08:35:49;12.70;99.90
8820;DHT22;4446;50.876;4.736;2023-05-10T08:38:18;12.70;99.90
8820;DHT22;4446;50.876;4.736;2023-05-10T08:40:45;12.80;99.90
8820;DHT22;4446;50.876;4.736;2023-05-10T08:43:13;12.80;99.90
8820;DHT22;4446;50.876;4.736;2023-05-10T08:45:42;12.80;99.90
8820;DHT22;4446;50.876;4.736;2023-05-10T08:48:11;12.80;99.90
8820;DHT22;4446;50.876;4.736;2023-05-10T08:50:39;12.80;99.90
8820;DHT22;4446;50.876;4.736;2023-05-10T08:53:09;12.80;99.90
8820;DHT22;4446;50.876;4.736;2023-05-10T08:55:39;12.70;99.90
8820;DHT22;4446;50.876;4.736;2023-05-10T08:58:08;12.70;99.90
8820;DHT22;4446;50.876;4.736;2023-05-10T09:00:36;12.70;99.90
8820;DHT22;4446;50.876;4.736;2023-05-10T09:03:05;12.70;99.90
8820;DHT22;4446;50.876;4.736;2023-05-10T09:05:32;12.70;99.90
8820;DHT22;4446;50.876;4.736;2023-05-10T09:07:59;12.80;99.90
8820;DHT22;4446;50.876;4.736;2023-05-10T09:10:28;12.80;99.90
8820;DHT22;4446;50.876;4.736;2023-05-10T09:12:58;12.80;99.90
8820;DHT22;4446;50.876;4.736;2023-05-10T09:15:25;12.80;99.90
8820;DHT22;4446;50.876;4.736;2023-05-10T09:17:52;12.90;99.90
8820;DHT22;4446;50.876;4.736;2023-05-10T09:20:21;12.90;99.90
8820;DHT22;4446;50.876;4.736;2023-05-10T09:22:48;13.00;99.90
8820;DHT22;4446;50.876;4.736;2023-05-10T09:25:16;13.00;99.90
8820;DHT22;4446;50.876;4.736;2023-05-10T09:27:45;13.00;99.90
8820;DHT22;4446;50.876;4.736;2023-05-10T09:30:18;13.00;99.90
8820;DHT22;4446;50.876;4.736;2023-05-10T09:32:49;13.00;99.90
8820;DHT22;4446;50.876;4.736;2023-05-10T09:35:18;13.20;99.90
8820;DHT22;4446;50.876;4.736;2023-05-10T09:37:46;13.20;99.90
8820;DHT22;4446;50.876;4.736;2023-05-10T09:40:16;13.20;99.90
8820;DHT22;4446;50.876;4.736;2023-05-10T09:42:51;13.20;99.90
8820;DHT22;4446;50.876;4.736;2023-05-10T09:45:20;13.20;99.90
8820;DHT22;4446;50.876;4.736;2023-05-10T09:47:47;13.30;99.90
8820;DHT22;4446;50.876;4.736;2023-05-10T09:50:14;13.20;99.90
8820;DHT22;4446;50.876;4.736;2023-05-10T09:52:49;13.20;99.90
8820;DHT22;4446;50.876;4.736;2023-05-10T09:55:18;13.30;99.90
8820;DHT22;4446;50.876;4.736;2023-05-10T09:57:45;13.30;99.90
8820;DHT22;4446;50.876;4.736;2023-05-10T10:00:18;13.30;99.90
8820;DHT22;4446;50.876;4.736;2023-05-10T10:02:47;13.40;99.90
8820;DHT22;4446;50.876;4.736;2023-05-10T10:05:14;13.60;99.90
8820;DHT22;4446;50.876;4.736;2023-05-10T10:07:42;13.70;99.90
8820;DHT22;4446;50.876;4.736;2023-05-10T10:10:10;13.70;99.90
8820;DHT22;4446;50.876;4.736;2023-05-10T10:12:40;13.70;99.90
8820;DHT22;4446;50.876;4.736;2023-05-10T10:15:08;13.70;99.90
8820;DHT22;4446;50.876;4.736;2023-05-10T10:17:37;13.80;99.90
8820;DHT22;4446;50.876;4.736;2023-05-10T10:20:06;13.80;99.90
8820;DHT22;4446;50.876;4.736;2023-05-10T10:22:34;13.80;99.90
8820;DHT22;4446;50.876;4.736;2023-05-10T10:25:01;13.80;99.90
8820;DHT22;4446;50.876;4.736;2023-05-10T10:27:37;13.90;99.90
8820;DHT22;4446;50.876;4.736;2023-05-10T10:30:16;13.70;99.90
8820;DHT22;4446;50.876;4.736;2023-05-10T10:33:10;13.70;99.90
8820;DHT22;4446;50.876;4.736;2023-05-10T10:35:40;13.60;99.90
8820;DHT22;4446;50.876;4.736;2023-05-10T10:38:08;13.50;99.90
8820;DHT22;4446;50.876;4.736;2023-05-10T10:40:35;13.60;99.90
8820;DHT22;4446;50.876;4.736;2023-05-10T10:43:22;13.70;99.90
8820;DHT22;4446;50.876;4.736;2023-05-10T10:46:09;13.70;99.90
8820;DHT22;4446;50.876;4.736;2023-05-10T10:48:38;13.70;99.90
8820;DHT22;4446;50.876;4.736;2023-05-10T10:51:05;13.80;99.90
8820;DHT22;4446;50.876;4.736;2023-05-10T10:53:32;13.90;99.90
8820;DHT22;4446;50.876;4.736;2023-05-10T10:56:06;13.90;99.90
8820;DHT22;4446;50.876;4.736;2023-05-10T10:58:35;13.90;99.90
8820;DHT22;4446;50.876;4.736;2023-05-10T11:01:11;14.20;99.90
8820;DHT22;4446;50.876;4.736;2023-05-10T11:03:39;14.40;99.90
8820;DHT22;4446;50.876;4.736;2023-05-10T11:06:06;14.60;99.90
8820;DHT22;4446;50.876;4.736;2023-05-10T11:08:41;14.70;99.90
8820;DHT22;4446;50.876;4.736;2023-05-10T11:11:09;14.60;99.90
8820;DHT22;4446;50.876;4.736;2023-05-10T11:13:41;14.60;99.90
8820;DHT22;4446;50.876;4.736;2023-05-10T11:16:17;14.80;99.90
8820;DHT22;4446;50.876;4.736;2023-05-10T11:19:01;14.90;99.90
8820;DHT22;4446;50.876;4.736;2023-05-10T11:21:29;15.10;99.90
8820;DHT22;4446;50.876;4.736;2023-05-10T11:23:57;15.40;99.90
8820;DHT22;4446;50.876;4.736;2023-05-10T11:26:30;15.40;99.90
8820;DHT22;4446;50.876;4.736;2023-05-10T11:28:57;15.40;99.90
8820;DHT22;4446;50.876;4.736;2023-05-10T11:31:26;15.60;99.90
8820;DHT22;4446;50.876;4.736;2023-05-10T11:33:54;15.60;99.90
8820;DHT22;4446;50.876;4.736;2023-05-10T11:36:24;15.70;99.90
8820;DHT22;4446;50.876;4.736;2023-05-10T11:38:52;16.00;99.90
8820;DHT22;4446;50.876;4.736;2023-05-10T11:41:20;16.20;99.90
8820;DHT22;4446;50.876;4.736;2023-05-10T11:43:50;16.30;99.90
8820;DHT22;4446;50.876;4.736;2023-05-10T11:46:19;16.10;99.90
8820;DHT22;4446;50.876;4.736;2023-05-10T11:48:48;16.20;99.90
8820;DHT22;4446;50.876;4.736;2023-05-10T11:51:20;16.10;99.90
8820;DHT22;4446;50.876;4.736;2023-05-10T11:53:49;16.30;99.90
8820;DHT22;4446;50.876;4.736;2023-05-10T11:56:16;16.30;99.90
8820;DHT22;4446;50.876;4.736;2023-05-10T11:58:44;16.50;99.90
8820;DHT22;4446;50.876;4.736;2023-05-10T12:01:12;16.50;99.90
8820;DHT22;4446;50.876;4.736;2023-05-10T12:03:40;16.40;99.90
8820;DHT22;4446;50.876;4.736;2023-05-10T12:06:07;16.20;99.90
8820;DHT22;4446;50.876;4.736;2023-05-10T12:08:34;16.40;99.90
8820;DHT22;4446;50.876;4.736;2023-05-10T12:11:07;16.40;99.90
8820;DHT22;4446;50.876;4.736;2023-05-10T12:13:38;16.60;99.90
8820;DHT22;4446;50.876;4.736;2023-05-10T12:16:17;16.50;99.90
8820;DHT22;4446;50.876;4.736;2023-05-10T12:18:45;16.60;99.90
8820;DHT22;4446;50.876;4.736;2023-05-10T12:21:15;16.40;99.90
8820;DHT22;4446;50.876;4.736;2023-05-10T12:23:42;16.60;99.90
8820;DHT22;4446;50.876;4.736;2023-05-10T12:26:13;16.80;99.90
8820;DHT22;4446;50.876;4.736;2023-05-10T12:28:40;16.80;99.90
8820;DHT22;4446;50.876;4.736;2023-05-10T12:31:08;17.20;99.90
8820;DHT22;4446;50.876;4.736;2023-05-10T12:33:38;17.10;99.90
8820;DHT22;4446;50.876;4.736;2023-05-10T12:36:07;17.10;99.90
8820;DHT22;4446;50.876;4.736;2023-05-10T12:38:36;17.20;99.90
8820;DHT22;4446;50.876;4.736;2023-05-10T12:41:04;17.40;99.90
8820;DHT22;4446;50.876;4.736;2023-05-10T12:43:36;17.20;99.90
8820;DHT22;4446;50.876;4.736;2023-05-10T12:46:05;17.40;99.90
8820;DHT22;4446;50.876;4.736;2023-05-10T12:48:32;17.50;99.90
8820;DHT22;4446;50.876;4.736;2023-05-10T12:51:00;17.50;99.90
8820;DHT22;4446;50.876;4.736;2023-05-10T12:53:28;17.20;99.90
8820;DHT22;4446;50.876;4.736;2023-05-10T12:55:55;17.20;99.90
8820;DHT22;4446;50.876;4.736;2023-05-10T12:58:22;17.10;99.90
8820;DHT22;4446;50.876;4.736;2023-05-10T13:00:50;17.00;99.90
8820;DHT22;4446;50.876;4.736;2023-05-10T13:03:18;16.60;99.90
8820;DHT22;4446;50.876;4.736;2023-05-10T13:05:45;16.30;99.90
8820;DHT22;4446;50.876;4.736;2023-05-10T13:08:12;16.30;99.90
8820;DHT22;4446;50.876;4.736;2023-05-10T13:10:39;16.50;99.90
8820;DHT22;4446;50.876;4.736;2023-05-10T13:13:07;16.60;99.90
8820;DHT22;4446;50.876;4.736;2023-05-10T13:15:34;16.70;99.90
8820;DHT22;4446;50.876;4.736;2023-05-10T13:18:02;16.90;99.90
8820;DHT22;4446;50.876;4.736;2023-05-10T13:20:30;16.90;99.90
8820;DHT22;4446;50.876;4.736;2023-05-10T13:22:57;16.90;99.90
8820;DHT22;4446;50.876;4.736;2023-05-10T13:25:24;16.70;99.90
8820;DHT22;4446;50.876;4.736;2023-05-10T13:27:51;16.70;99.90
8820;DHT22;4446;50.876;4.736;2023-05-10T13:30:19;16.70;99.90
8820;DHT22;4446;50.876;4.736;2023-05-10T13:32:46;16.80;99.90
8820;DHT22;4446;50.876;4.736;2023-05-10T13:35:14;16.90;99.90
8820;DHT22;4446;50.876;4.736;2023-05-10T13:37:41;17.00;99.90
8820;DHT22;4446;50.876;4.736;2023-05-10T13:40:09;16.80;99.90
8820;DHT22;4446;50.876;4.736;2023-05-10T13:42:37;16.70;99.90
8820;DHT22;4446;50.876;4.736;2023-05-10T13:45:05;16.70;99.90
8820;DHT22;4446;50.876;4.736;2023-05-10T13:47:32;16.80;99.90
8820;DHT22;4446;50.876;4.736;2023-05-10T13:49:59;17.00;99.90
8820;DHT22;4446;50.876;4.736;2023-05-10T13:52:27;17.10;99.90
8820;DHT22;4446;50.876;4.736;2023-05-10T13:54:54;17.00;99.90
8820;DHT22;4446;50.876;4.736;2023-05-10T13:57:21;16.90;99.90
8820;DHT22;4446;50.876;4.736;2023-05-10T13:59:49;16.80;99.90
8820;DHT22;4446;50.876;4.736;2023-05-10T14:02:16;16.80;99.90
8820;DHT22;4446;50.876;4.736;2023-05-10T14:04:43;16.80;99.90
8820;DHT22;4446;50.876;4.736;2023-05-10T14:07:11;16.70;99.90
8820;DHT22;4446;50.876;4.736;2023-05-10T14:09:39;16.80;99.90
8820;DHT22;4446;50.876;4.736;2023-05-10T14:12:06;17.00;99.90
8820;DHT22;4446;50.876;4.736;2023-05-10T14:14:33;17.20;99.90
8820;DHT22;4446;50.876;4.736;2023-05-10T14:17:00;17.30;99.90
8820;DHT22;4446;50.876;4.736;2023-05-10T14:19:28;17.40;99.90
8820;DHT22;4446;50.876;4.736;2023-05-10T14:21:58;17.70;99.90
8820;DHT22;4446;50.876;4.736;2023-05-10T14:24:25;18.00;99.90
8820;DHT22;4446;50.876;4.736;2023-05-10T14:26:53;17.90;99.90
8820;DHT22;4446;50.876;4.736;2023-05-10T14:29:20;18.00;99.90
8820;DHT22;4446;50.876;4.736;2023-05-10T14:31:47;18.10;99.90
8820;DHT22;4446;50.876;4.736;2023-05-10T14:34:14;18.30;99.90
8820;DHT22;4446;50.876;4.736;2023-05-10T14:36:41;18.60;99.90
8820;DHT22;4446;50.876;4.736;2023-05-10T14:39:08;18.60;99.90
8820;DHT22;4446;50.876;4.736;2023-05-10T14:41:38;18.70;99.90
8820;DHT22;4446;50.876;4.736;2023-05-10T14:44:07;18.70;99.90
8820;DHT22;4446;50.876;4.736;2023-05-10T14:46:35;18.70;99.90
8820;DHT22;4446;50.876;4.736;2023-05-10T14:49:02;18.40;99.90
8820;DHT22;4446;50.876;4.736;2023-05-10T14:51:29;18.10;99.90
8820;DHT22;4446;50.876;4.736;2023-05-10T14:53:57;18.50;99.90
8820;DHT22;4446;50.876;4.736;2023-05-10T14:56:24;18.80;99.90
8820;DHT22;4446;50.876;4.736;2023-05-10T14:58:51;19.10;99.90
8820;DHT22;4446;50.876;4.736;2023-05-10T15:01:20;19.10;99.90
8820;DHT22;4446;50.876;4.736;2023-05-10T15:03:48;18.60;99.90
8820;DHT22;4446;50.876;4.736;2023-05-10T15:06:22;18.50;99.90
8820;DHT22;4446;50.876;4.736;2023-05-10T15:08:49;18.40;99.90
8820;DHT22;4446;50.876;4.736;2023-05-10T15:11:18;18.30;99.90
8820;DHT22;4446;50.876;4.736;2023-05-10T15:13:46;18.10;99.90
8820;DHT22;4446;50.876;4.736;2023-05-10T15:16:15;18.00;99.90
8820;DHT22;4446;50.876;4.736;2023-05-10T15:18:43;18.00;99.90
8820;DHT22;4446;50.876;4.736;2023-05-10T15:21:10;18.00;99.90
8820;DHT22;4446;50.876;4.736;2023-05-10T15:23:38;18.10;99.90
8820;DHT22;4446;50.876;4.736;2023-05-10T15:26:05;18.00;99.90
8820;DHT22;4446;50.876;4.736;2023-05-10T15:28:32;17.90;99.90
8820;DHT22;4446;50.876;4.736;2023-05-10T15:30:59;18.30;99.90
8820;DHT22;4446;50.876;4.736;2023-05-10T15:33:26;18.30;99.90
8820;DHT22;4446;50.876;4.736;2023-05-10T15:35:57;18.40;99.90
8820;DHT22;4446;50.876;4.736;2023-05-10T15:38:24;19.20;99.90
8820;DHT22;4446;50.876;4.736;2023-05-10T15:40:51;19.60;99.90
8820;DHT22;4446;50.876;4.736;2023-05-10T15:43:21;19.80;99.90
8820;DHT22;4446;50.876;4.736;2023-05-10T15:45:51;19.70;99.90
8820;DHT22;4446;50.876;4.736;2023-05-10T15:48:18;19.40;99.90
8820;DHT22;4446;50.876;4.736;2023-05-10T15:50:45;19.00;99.90
8820;DHT22;4446;50.876;4.736;2023-05-10T15:53:14;18.40;99.90
8820;DHT22;4446;50.876;4.736;2023-05-10T15:55:41;17.90;99.90
8820;DHT22;4446;50.876;4.736;2023-05-10T15:58:09;17.40;99.90
8820;DHT22;4446;50.876;4.736;2023-05-10T16:00:37;17.20;99.90
8820;DHT22;4446;50.876;4.736;2023-05-10T16:03:04;17.00;99.90
8820;DHT22;4446;50.876;4.736;2023-05-10T16:05:33;16.80;99.90
8820;DHT22;4446;50.876;4.736;2023-05-10T16:08:03;16.50;99.90
8820;DHT22;4446;50.876;4.736;2023-05-10T16:10:32;16.30;99.90